Time;durP1;ratioP1;P1;durP2;ratioP2;P2;SDS_P1;SDS_P2;PMS_P1;PMS_P2;Temp;Humidity;BMP_temperature;BMP_pressure;BME280_temperature;BME280_humidity;BME280_pressure;Samples;Min_cycle;Max_cycle;Signal;HPM_P1;HPM_P2
2024/04/13 00:00:02;;;;;;;;;;;15.20;99.90;;;;;;5452912;26;19929;-72
2024/04/13 00:02:28;;;;;;;;;;;15.10;99.90;;;;;;5452866;26;19929;-71
2024/04/13 00:04:53;;;;;;;;;;;15.10;99.90;;;;;;5452992;26;20327;-72
2024/04/13 00:07:19;;;;;;;;;;;15.00;99.90;;;;;;5453746;26;19945;-72
2024/04/13 00:09:44;;;;;;;;;;;15.00;99.90;;;;;;5452970;26;19935;-72
2024/04/13 00:12:10;;;;;;;;;;;15.00;99.90;;;;;;5453520;26;20329;-72
2024/04/13 00:14:35;;;;;;;;;;;15.10;99.90;;;;;;5453167;26;19928;-72
2024/04/13 00:17:01;;;;;;;;;;;15.00;99.90;;;;;;5453365;26;20685;-72
2024/04/13 00:19:27;;;;;;;;;;;15.00;99.90;;;;;;5452740;26;19928;-72
2024/04/13 00:21:52;;;;;;;;;;;15.10;99.90;;;;;;5453370;26;19935;-72
2024/04/13 00:24:17;;;;;;;;;;;15.10;99.90;;;;;;5453498;26;19937;-72
2024/04/13 00:26:43;;;;;;;;;;;15.00;99.90;;;;;;5453324;26;19961;-72
2024/04/13 00:29:09;;;;;;;;;;;14.90;99.90;;;;;;5452732;26;19928;-72
2024/04/13 00:31:34;;;;;;;;;;;14.90;99.90;;;;;;5453289;26;20334;-72
2024/04/13 00:34:04;;;;;;;;;;;15.00;99.90;;;;;;5453654;26;19956;-72
2024/04/13 00:36:29;;;;;;;;;;;15.00;99.90;;;;;;5453447;26;19928;-71
2024/04/13 00:38:55;;;;;;;;;;;15.00;99.90;;;;;;5453488;26;19939;-71
2024/04/13 00:41:20;;;;;;;;;;;15.10;99.90;;;;;;5453144;26;19998;-72
2024/04/13 00:43:46;;;;;;;;;;;15.10;99.90;;;;;;5453587;26;19929;-72
2024/04/13 00:46:16;;;;;;;;;;;15.00;99.90;;;;;;5453353;26;19928;-72
2024/04/13 00:48:44;;;;;;;;;;;15.00;99.90;;;;;;5453332;26;19928;-72
2024/04/13 00:51:12;;;;;;;;;;;15.00;99.90;;;;;;5453384;26;19929;-72
2024/04/13 00:53:38;;;;;;;;;;;14.90;99.90;;;;;;5453396;26;19935;-71
2024/04/13 00:56:06;;;;;;;;;;;14.90;99.90;;;;;;5453309;26;19937;-72
2024/04/13 00:58:32;;;;;;;;;;;14.90;99.90;;;;;;5452912;26;19932;-72
2024/04/13 01:00:58;;;;;;;;;;;14.90;99.90;;;;;;5451191;26;20502;-72
2024/04/13 01:03:24;;;;;;;;;;;14.80;99.90;;;;;;5453096;26;19936;-72
2024/04/13 01:05:50;;;;;;;;;;;14.80;99.90;;;;;;5453109;26;20320;-72
2024/04/13 01:08:15;;;;;;;;;;;14.80;99.90;;;;;;5453103;26;20256;-71
2024/04/13 01:10:41;;;;;;;;;;;14.80;99.90;;;;;;5452717;26;19932;-72
2024/04/13 01:13:08;;;;;;;;;;;14.80;99.90;;;;;;5453028;26;20395;-72
2024/04/13 01:15:36;;;;;;;;;;;14.80;99.90;;;;;;5452817;26;19968;-71
2024/04/13 01:18:05;;;;;;;;;;;14.70;99.90;;;;;;5452724;26;19940;-72
2024/04/13 01:20:33;;;;;;;;;;;14.70;99.90;;;;;;5452563;26;19929;-72
2024/04/13 01:22:59;;;;;;;;;;;14.70;99.90;;;;;;5452782;26;19928;-71
2024/04/13 01:25:25;;;;;;;;;;;14.60;99.90;;;;;;5452494;26;19997;-72
2024/04/13 01:27:51;;;;;;;;;;;14.60;99.90;;;;;;5452132;26;20369;-72
2024/04/13 01:30:17;;;;;;;;;;;14.60;99.90;;;;;;5451961;26;19938;-72
2024/04/13 01:32:44;;;;;;;;;;;14.50;99.90;;;;;;5452383;26;19934;-71
2024/04/13 01:35:13;;;;;;;;;;;14.50;99.90;;;;;;5452544;26;19936;-71
2024/04/13 01:37:39;;;;;;;;;;;14.50;99.90;;;;;;5452586;26;19939;-72
2024/04/13 01:40:06;;;;;;;;;;;14.50;99.90;;;;;;5452351;26;19928;-72
2024/04/13 01:42:32;;;;;;;;;;;14.40;99.90;;;;;;5452612;26;20644;-72
2024/04/13 01:44:58;;;;;;;;;;;14.30;99.90;;;;;;5452675;26;19942;-72
2024/04/13 01:47:24;;;;;;;;;;;14.50;99.90;;;;;;5452329;26;19940;-72
2024/04/13 01:49:49;;;;;;;;;;;14.50;99.90;;;;;;5451432;26;19928;-72
2024/04/13 01:52:15;;;;;;;;;;;14.40;99.90;;;;;;5452214;26;19943;-72
2024/04/13 01:54:41;;;;;;;;;;;14.40;99.90;;;;;;5451810;26;20301;-71
2024/04/13 01:57:06;;;;;;;;;;;14.40;99.90;;;;;;5451919;26;19936;-71
2024/04/13 01:59:32;;;;;;;;;;;14.40;99.90;;;;;;5451418;26;19928;-72
2024/04/13 02:01:57;;;;;;;;;;;14.40;99.90;;;;;;5452021;26;19929;-72
2024/04/13 02:04:23;;;;;;;;;;;14.40;99.90;;;;;;5451766;26;19928;-72
2024/04/13 02:06:48;;;;;;;;;;;14.40;99.90;;;;;;5451684;26;20275;-71
2024/04/13 02:09:14;;;;;;;;;;;14.30;99.90;;;;;;5451470;26;19994;-72
2024/04/13 02:11:39;;;;;;;;;;;14.20;99.90;;;;;;5451716;26;19933;-72
2024/04/13 02:14:05;;;;;;;;;;;14.30;99.90;;;;;;5454425;26;19928;-71
2024/04/13 02:16:30;;;;;;;;;;;14.30;99.90;;;;;;5455436;26;20356;-72
2024/04/13 02:18:56;;;;;;;;;;;14.30;99.90;;;;;;5455047;26;19928;-72
2024/04/13 02:21:22;;;;;;;;;;;14.30;99.90;;;;;;5454776;26;19940;-72
2024/04/13 02:23:48;;;;;;;;;;;14.20;99.90;;;;;;5455100;26;19940;-71
2024/04/13 02:26:13;;;;;;;;;;;14.30;99.90;;;;;;5455187;26;19978;-72
2024/04/13 02:28:39;;;;;;;;;;;14.20;99.90;;;;;;5455099;26;19929;-71
2024/04/13 02:31:04;;;;;;;;;;;14.20;99.90;;;;;;5454537;26;20364;-71
2024/04/13 02:33:32;;;;;;;;;;;14.20;99.90;;;;;;5454939;26;19935;-72
2024/04/13 02:35:58;;;;;;;;;;;14.20;99.90;;;;;;5454671;26;19928;-72
2024/04/13 02:38:24;;;;;;;;;;;14.20;99.90;;;;;;5454721;26;19928;-72
2024/04/13 02:40:56;;;;;;;;;;;14.30;99.90;;;;;;5454530;26;20316;-72
2024/04/13 02:43:22;;;;;;;;;;;14.20;99.90;;;;;;5454412;26;19940;-71
2024/04/13 02:45:47;;;;;;;;;;;14.20;99.90;;;;;;5454623;26;19936;-72
2024/04/13 02:48:13;;;;;;;;;;;14.10;99.90;;;;;;5454643;26;19936;-72
2024/04/13 02:50:38;;;;;;;;;;;14.10;99.90;;;;;;5454200;26;20449;-72
2024/04/13 02:53:04;;;;;;;;;;;14.10;99.90;;;;;;5454460;26;19936;-72
2024/04/13 02:55:29;;;;;;;;;;;14.10;99.90;;;;;;5454983;26;20366;-71
2024/04/13 02:57:55;;;;;;;;;;;14.10;99.90;;;;;;5454436;26;19928;-72
2024/04/13 03:00:21;;;;;;;;;;;14.10;99.90;;;;;;5453897;26;19929;-72
2024/04/13 03:02:47;;;;;;;;;;;14.10;99.90;;;;;;5454485;26;19929;-72
2024/04/13 03:05:12;;;;;;;;;;;14.00;99.90;;;;;;5454887;26;19997;-72
2024/04/13 03:07:38;;;;;;;;;;;14.00;99.90;;;;;;5454540;26;19996;-71
2024/04/13 03:10:06;;;;;;;;;;;14.00;99.90;;;;;;5454552;26;19928;-72
2024/04/13 03:12:32;;;;;;;;;;;14.00;99.90;;;;;;5454765;26;19940;-72
2024/04/13 03:14:58;;;;;;;;;;;13.90;99.90;;;;;;5454467;26;19928;-71
2024/04/13 03:17:24;;;;;;;;;;;14.00;99.90;;;;;;5454744;26;20284;-71
2024/04/13 03:19:52;;;;;;;;;;;13.80;99.90;;;;;;5454635;26;19928;-72
2024/04/13 03:22:20;;;;;;;;;;;14.00;99.90;;;;;;5454789;26;19928;-72
2024/04/13 03:24:46;;;;;;;;;;;14.00;99.90;;;;;;5453073;26;19932;-71
2024/04/13 03:27:12;;;;;;;;;;;13.90;99.90;;;;;;5454455;26;19940;-72
2024/04/13 03:29:38;;;;;;;;;;;14.10;99.90;;;;;;5430787;21;19929;-69
2024/04/13 03:32:03;;;;;;;;;;;13.70;99.90;;;;;;5382483;26;20357;-69
2024/04/13 03:34:29;;;;;;;;;;;14.00;99.90;;;;;;5382120;26;19932;-69
2024/04/13 03:36:54;;;;;;;;;;;13.90;99.90;;;;;;5382311;26;19942;-69
2024/04/13 03:39:21;;;;;;;;;;;13.90;99.90;;;;;;5381901;26;20276;-69
2024/04/13 03:41:47;;;;;;;;;;;13.80;99.90;;;;;;5382336;26;19929;-70
2024/04/13 03:44:13;;;;;;;;;;;13.80;99.90;;;;;;5382287;26;19962;-69
2024/04/13 03:46:38;;;;;;;;;;;13.90;99.90;;;;;;5382255;26;19933;-71
2024/04/13 03:49:04;;;;;;;;;;;13.90;99.90;;;;;;5381856;26;19929;-69
2024/04/13 03:51:29;;;;;;;;;;;14.30;99.90;;;;;;5351250;26;19929;-70
2024/04/13 03:53:55;;;;;;;;;;;13.90;99.90;;;;;;5382037;26;19941;-70
2024/04/13 03:56:20;;;;;;;;;;;13.80;99.90;;;;;;5382115;26;19930;-69
2024/04/13 03:58:47;;;;;;;;;;;13.80;99.90;;;;;;5381632;26;19952;-69
2024/04/13 04:01:12;;;;;;;;;;;13.60;99.90;;;;;;5378507;26;19941;-69
2024/04/13 04:03:38;;;;;;;;;;;13.70;99.90;;;;;;5379859;26;20544;-69
2024/04/13 04:06:05;;;;;;;;;;;13.70;99.90;;;;;;5379460;26;19929;-69
2024/04/13 04:08:31;;;;;;;;;;;13.70;99.90;;;;;;5380026;26;20563;-69
2024/04/13 04:10:56;;;;;;;;;;;13.70;99.90;;;;;;5381533;26;19930;-69
2024/04/13 04:13:23;;;;;;;;;;;13.60;99.90;;;;;;5381829;26;19933;-69
2024/04/13 04:15:52;;;;;;;;;;;13.60;99.90;;;;;;5381857;26;19929;-70
2024/04/13 04:18:18;;;;;;;;;;;13.70;99.90;;;;;;5381372;26;19929;-69
2024/04/13 04:20:45;;;;;;;;;;;13.60;99.90;;;;;;5381297;26;20345;-70
2024/04/13 04:23:11;;;;;;;;;;;13.80;99.90;;;;;;5381759;26;19962;-70
2024/04/13 04:25:36;;;;;;;;;;;13.70;99.90;;;;;;5381663;26;19929;-69
2024/04/13 04:28:02;;;;;;;;;;;13.50;99.90;;;;;;5381563;26;19936;-70
2024/04/13 04:30:27;;;;;;;;;;;13.60;99.90;;;;;;5381299;26;20393;-69
2024/04/13 04:32:53;;;;;;;;;;;13.40;99.90;;;;;;5381751;26;20365;-70
2024/04/13 04:35:18;;;;;;;;;;;13.60;99.90;;;;;;5381182;26;19933;-69
2024/04/13 04:37:44;;;;;;;;;;;13.60;99.90;;;;;;5381098;26;19937;-70
2024/04/13 04:40:09;;;;;;;;;;;13.50;99.90;;;;;;5380809;26;19929;-69
2024/04/13 04:42:35;;;;;;;;;;;13.50;99.90;;;;;;5381200;26;19930;-69
2024/04/13 04:45:01;;;;;;;;;;;13.60;99.90;;;;;;5350514;26;19930;-69
2024/04/13 04:47:27;;;;;;;;;;;13.50;99.90;;;;;;5381545;26;20359;-71
2024/04/13 04:49:52;;;;;;;;;;;13.60;99.90;;;;;;5380930;26;19933;-69
2024/04/13 04:52:18;;;;;;;;;;;13.60;99.90;;;;;;5381365;26;19936;-69
2024/04/13 04:54:44;;;;;;;;;;;13.50;99.90;;;;;;5381186;26;19937;-70
2024/04/13 04:57:09;;;;;;;;;;;13.60;99.90;;;;;;5381356;26;19936;-70
2024/04/13 04:59:35;;;;;;;;;;;13.60;99.90;;;;;;5380757;26;19929;-69
2024/04/13 05:02:00;;;;;;;;;;;13.70;99.90;;;;;;5381233;26;19949;-69
2024/04/13 05:04:26;;;;;;;;;;;13.70;99.90;;;;;;5381054;26;20365;-70
2024/04/13 05:06:52;;;;;;;;;;;13.70;99.90;;;;;;5381174;26;19940;-70
2024/04/13 05:09:17;;;;;;;;;;;13.70;99.90;;;;;;5380669;26;19929;-69
2024/04/13 05:11:43;;;;;;;;;;;13.80;99.90;;;;;;5380972;26;19964;-69
2024/04/13 05:14:10;;;;;;;;;;;13.80;99.90;;;;;;5380972;26;20307;-69
2024/04/13 05:16:36;;;;;;;;;;;13.90;99.90;;;;;;5381009;26;20007;-69
2024/04/13 05:19:03;;;;;;;;;;;13.80;99.90;;;;;;5380788;26;19941;-70
2024/04/13 05:21:30;;;;;;;;;;;13.90;99.90;;;;;;5380983;26;19936;-69
2024/04/13 05:23:55;;;;;;;;;;;13.90;99.90;;;;;;5380924;26;20384;-69
2024/04/13 05:26:21;;;;;;;;;;;13.80;99.90;;;;;;5380696;26;19980;-69
2024/04/13 05:28:47;;;;;;;;;;;14.00;99.90;;;;;;5380666;26;19937;-69
2024/04/13 05:31:12;;;;;;;;;;;14.00;99.90;;;;;;5380289;26;19929;-70
2024/04/13 05:33:38;;;;;;;;;;;14.10;99.90;;;;;;5380675;26;19929;-69
2024/04/13 05:36:05;;;;;;;;;;;14.10;99.90;;;;;;5380766;26;19938;-69
2024/04/13 05:38:30;;;;;;;;;;;14.20;99.90;;;;;;5380587;26;19937;-71
2024/04/13 05:40:56;;;;;;;;;;;14.20;99.90;;;;;;5380123;26;19930;-69
2024/04/13 05:43:21;;;;;;;;;;;14.30;99.90;;;;;;5380680;26;19937;-69
2024/04/13 05:45:47;;;;;;;;;;;14.30;99.90;;;;;;5380340;26;19938;-69
2024/04/13 05:48:12;;;;;;;;;;;14.40;99.90;;;;;;5379649;26;19934;-70
2024/04/13 05:50:38;;;;;;;;;;;14.30;99.90;;;;;;5379930;26;19999;-69
2024/04/13 05:53:04;;;;;;;;;;;14.50;99.90;;;;;;5380338;26;19934;-70
2024/04/13 05:55:30;;;;;;;;;;;14.60;99.90;;;;;;5380077;26;19929;-69
2024/04/13 05:57:55;;;;;;;;;;;14.60;99.90;;;;;;5380344;26;19930;-69
2024/04/13 06:00:22;;;;;;;;;;;14.80;99.90;;;;;;5379792;26;19962;-70
2024/04/13 06:02:47;;;;;;;;;;;14.80;99.90;;;;;;5380291;26;19930;-70
2024/04/13 06:05:13;;;;;;;;;;;14.90;99.90;;;;;;5380162;26;19940;-71
2024/04/13 06:07:38;;;;;;;;;;;15.00;99.90;;;;;;5380264;26;20002;-69
2024/04/13 06:10:07;;;;;;;;;;;15.20;99.90;;;;;;5379586;26;19930;-69
2024/04/13 06:12:33;;;;;;;;;;;15.30;99.90;;;;;;5379942;26;19998;-69
2024/04/13 06:14:59;;;;;;;;;;;15.20;99.90;;;;;;5379984;26;19930;-70
2024/04/13 06:17:24;;;;;;;;;;;15.30;99.90;;;;;;5379386;26;19937;-69
2024/04/13 06:19:49;;;;;;;;;;;15.40;99.90;;;;;;5379371;26;19936;-69
2024/04/13 06:22:20;;;;;;;;;;;15.50;99.90;;;;;;5379868;26;20370;-70
2024/04/13 06:24:46;;;;;;;;;;;15.50;99.90;;;;;;5379525;26;19930;-69
2024/04/13 06:27:12;;;;;;;;;;;15.50;99.90;;;;;;5379900;26;19937;-70
2024/04/13 06:29:37;;;;;;;;;;;15.50;99.90;;;;;;5379135;26;19941;-70
2024/04/13 06:32:03;;;;;;;;;;;15.60;99.90;;;;;;5379754;26;20032;-69
2024/04/13 06:34:28;;;;;;;;;;;15.70;99.90;;;;;;5379571;26;20272;-69
2024/04/13 06:36:54;;;;;;;;;;;15.70;99.90;;;;;;5379710;26;20379;-69
2024/04/13 06:39:19;;;;;;;;;;;15.80;99.90;;;;;;5379047;26;19929;-70
2024/04/13 06:41:45;;;;;;;;;;;15.80;99.90;;;;;;5379676;26;20269;-70
2024/04/13 06:44:10;;;;;;;;;;;16.60;99.90;;;;;;5379434;26;19933;-70
2024/04/13 06:46:36;;;;;;;;;;;16.00;99.90;;;;;;5379440;26;20380;-70
2024/04/13 06:49:01;;;;;;;;;;;16.10;99.90;;;;;;5379099;26;19999;-69
2024/04/13 06:51:27;;;;;;;;;;;16.10;99.90;;;;;;5379105;26;19938;-69
2024/04/13 06:53:52;;;;;;;;;;;16.30;99.90;;;;;;5379247;26;19965;-70
2024/04/13 06:56:19;;;;;;;;;;;16.20;99.90;;;;;;5379213;26;19938;-69
2024/04/13 06:58:45;;;;;;;;;;;16.30;99.90;;;;;;5380205;26;20372;-70
2024/04/13 07:01:10;;;;;;;;;;;16.40;99.90;;;;;;5382502;26;19929;-70
2024/04/13 07:03:36;;;;;;;;;;;16.50;99.90;;;;;;5382702;26;19930;-70
2024/04/13 07:06:02;;;;;;;;;;;16.50;99.90;;;;;;5382763;26;19929;-69
2024/04/13 07:08:28;;;;;;;;;;;16.60;99.90;;;;;;5381907;26;20266;-71
2024/04/13 07:10:54;;;;;;;;;;;16.70;99.90;;;;;;5381772;26;19939;-69
2024/04/13 07:13:20;;;;;;;;;;;16.70;99.90;;;;;;5382080;26;19937;-69
2024/04/13 07:15:45;;;;;;;;;;;16.90;99.90;;;;;;5382690;26;19999;-70
2024/04/13 07:18:11;;;;;;;;;;;16.90;99.90;;;;;;5382585;26;19930;-69
2024/04/13 07:20:36;;;;;;;;;;;17.20;99.90;;;;;;5381873;26;19929;-70
2024/04/13 07:23:02;;;;;;;;;;;17.20;99.90;;;;;;5382551;26;20331;-69
2024/04/13 07:25:28;;;;;;;;;;;17.40;99.90;;;;;;5382570;26;19934;-69
2024/04/13 07:27:53;;;;;;;;;;;17.50;99.90;;;;;;5382508;26;19934;-70
2024/04/13 07:30:19;;;;;;;;;;;17.60;99.90;;;;;;5381926;26;20301;-69
2024/04/13 07:32:46;;;;;;;;;;;17.80;99.90;;;;;;5382287;26;19995;-70
2024/04/13 07:35:11;;;;;;;;;;;17.80;96.70;;;;;;5380230;26;19937;-69
2024/04/13 07:37:37;;;;;;;;;;;17.90;96.30;;;;;;5380284;26;19929;-70
2024/04/13 07:40:02;;;;;;;;;;;18.10;95.60;;;;;;5381762;26;20408;-70
2024/04/13 07:42:28;;;;;;;;;;;18.20;95.90;;;;;;5381857;26;19930;-70
2024/04/13 07:44:54;;;;;;;;;;;18.20;96.20;;;;;;5381902;26;19934;-70
2024/04/13 07:47:19;;;;;;;;;;;18.30;91.20;;;;;;5382161;26;19999;-69
2024/04/13 07:49:45;;;;;;;;;;;18.50;91.00;;;;;;5381871;26;19943;-70
2024/04/13 07:52:10;;;;;;;;;;;18.30;88.10;;;;;;5381698;26;19936;-69
2024/04/13 07:54:35;;;;;;;;;;;18.60;89.80;;;;;;5382014;26;20263;-70
2024/04/13 07:57:01;;;;;;;;;;;18.70;90.30;;;;;;5381872;26;19936;-70
2024/04/13 07:59:26;;;;;;;;;;;18.90;81.50;;;;;;5381827;26;19933;-69
2024/04/13 08:01:52;;;;;;;;;;;18.90;64.80;;;;;;5382605;26;19933;-70
2024/04/13 08:04:17;;;;;;;;;;;19.20;62.90;;;;;;5382059;26;19965;-70
2024/04/13 08:06:43;;;;;;;;;;;19.40;50.00;;;;;;5381525;26;19965;-70
2024/04/13 08:09:08;;;;;;;;;;;19.40;46.90;;;;;;5381712;26;20380;-70
2024/04/13 08:11:34;;;;;;;;;;;19.60;38.60;;;;;;5381195;26;19940;-69
2024/04/13 08:13:59;;;;;;;;;;;19.70;33.00;;;;;;5381361;26;19934;-70
2024/04/13 08:16:25;;;;;;;;;;;19.80;22.50;;;;;;5381818;26;20606;-70
2024/04/13 08:18:50;;;;;;;;;;;19.90;18.40;;;;;;5381794;26;19930;-69
2024/04/13 08:21:17;;;;;;;;;;;20.00;13.50;;;;;;5400531;26;19936;-70
2024/04/13 08:23:43;;;;;;;;;;;20.10;15.20;;;;;;5417256;26;19936;-70
2024/04/13 08:26:09;;;;;;;;;;;20.10;12.00;;;;;;5416887;26;19937;-71
2024/04/13 08:28:35;;;;;;;;;;;20.10;8.30;;;;;;5391144;26;19941;-70
2024/04/13 08:31:06;;;;;;;;;;;20.20;7.50;;;;;;5380588;26;19940;-70
2024/04/13 08:33:32;;;;;;;;;;;20.20;7.70;;;;;;5381065;26;19937;-70
2024/04/13 08:36:08;;;;;;;;;;;20.30;9.00;;;;;;5378797;26;19930;-70
2024/04/13 08:38:33;;;;;;;;;;;20.40;5.70;;;;;;5405387;26;20006;-70
2024/04/13 08:41:12;;;;;;;;;;;20.50;3.80;;;;;;5416490;26;19929;-70
2024/04/13 08:43:37;;;;;;;;;;;20.60;3.10;;;;;;5416657;26;19929;-69
2024/04/13 08:46:07;;;;;;;;;;;20.60;5.40;;;;;;5416543;26;19943;-68
2024/04/13 08:48:34;;;;;;;;;;;20.60;2.30;;;;;;5416640;26;19941;-71
2024/04/13 08:51:01;;;;;;;;;;;20.60;1.00;;;;;;5415704;26;19998;-69
2024/04/13 08:53:29;;;;;;;;;;;20.70;1.00;;;;;;5408225;26;19944;-69
2024/04/13 08:55:56;;;;;;;;;;;20.70;1.00;;;;;;5381116;26;19929;-71
2024/04/13 08:58:22;;;;;;;;;;;20.80;1.00;;;;;;5380162;26;19941;-70
2024/04/13 09:00:51;;;;;;;;;;;20.90;1.00;;;;;;5380491;26;19933;-70
2024/04/13 09:03:19;;;;;;;;;;;21.00;1.00;;;;;;5381063;26;19930;-69
2024/04/13 09:05:44;;;;;;;;;;;21.10;1.00;;;;;;5380947;26;20326;-69
2024/04/13 09:08:11;;;;;;;;;;;21.20;1.00;;;;;;5389997;26;20026;-70
2024/04/13 09:10:41;;;;;;;;;;;21.50;1.00;;;;;;5382694;26;20003;-70
2024/04/13 09:13:06;;;;;;;;;;;21.50;1.00;;;;;;5380199;26;19933;-69
2024/04/13 09:15:32;;;;;;;;;;;21.70;1.00;;;;;;5380555;26;19980;-70
2024/04/13 09:17:57;;;;;;;;;;;21.80;1.00;;;;;;5380885;26;19933;-70
2024/04/13 09:20:23;;;;;;;;;;;21.90;1.00;;;;;;5380097;26;19934;-70
2024/04/13 09:22:49;;;;;;;;;;;21.90;1.00;;;;;;5379273;26;19929;-69
2024/04/13 09:25:21;;;;;;;;;;;22.00;1.00;;;;;;5380875;26;19936;-70
2024/04/13 09:27:56;;;;;;;;;;;22.00;1.00;;;;;;5380312;26;19941;-69
2024/04/13 09:30:22;;;;;;;;;;;22.00;1.00;;;;;;5378561;26;19929;-69
2024/04/13 09:32:50;;;;;;;;;;;22.00;1.00;;;;;;5386577;26;19997;-69
2024/04/13 09:35:17;;;;;;;;;;;21.90;1.00;;;;;;5386234;26;19936;-70
2024/04/13 09:37:43;;;;;;;;;;;22.00;1.00;;;;;;5379544;26;19933;-71
2024/04/13 09:40:10;;;;;;;;;;;22.10;1.00;;;;;;5380473;26;19933;-70
2024/04/13 09:42:36;;;;;;;;;;;22.30;1.00;;;;;;5379789;26;20250;-70
2024/04/13 09:45:04;;;;;;;;;;;22.40;1.00;;;;;;5380346;26;19936;-71
2024/04/13 09:47:30;;;;;;;;;;;22.40;1.00;;;;;;5380334;26;19937;-71
2024/04/13 09:49:55;;;;;;;;;;;22.50;1.00;;;;;;5379884;26;19929;-71
2024/04/13 09:52:21;;;;;;;;;;;22.40;1.00;;;;;;5380541;26;19942;-70
2024/04/13 09:54:47;;;;;;;;;;;22.60;1.00;;;;;;5380542;26;19930;-71
2024/04/13 09:57:14;;;;;;;;;;;22.70;1.00;;;;;;5379914;26;19937;-71
2024/04/13 09:59:39;;;;;;;;;;;22.80;1.00;;;;;;5379441;26;19936;-71
2024/04/13 10:02:06;;;;;;;;;;;22.80;1.00;;;;;;5379482;26;19930;-71
2024/04/13 10:04:31;;;;;;;;;;;23.00;1.00;;;;;;5378551;26;19999;-71
2024/04/13 10:06:57;;;;;;;;;;;23.30;1.00;;;;;;5379086;26;19942;-71
2024/04/13 10:09:23;;;;;;;;;;;23.40;1.00;;;;;;5379796;26;20206;-71
2024/04/13 10:11:51;;;;;;;;;;;23.30;1.00;;;;;;5380360;26;19944;-71
2024/04/13 10:14:18;;;;;;;;;;;23.40;1.00;;;;;;5379114;26;20304;-71
2024/04/13 10:16:45;;;;;;;;;;;23.50;1.00;;;;;;5378965;26;19937;-72
2024/04/13 10:19:11;;;;;;;;;;;23.50;1.00;;;;;;5378277;26;20414;-71
2024/04/13 10:21:37;;;;;;;;;;;23.60;1.00;;;;;;5379081;26;19933;-71
2024/04/13 10:24:02;;;;;;;;;;;23.60;1.00;;;;;;5379791;26;19936;-71
2024/04/13 10:26:28;;;;;;;;;;;23.60;1.00;;;;;;5379110;26;19930;-71
2024/04/13 10:29:00;;;;;;;;;;;23.60;1.00;;;;;;5379612;26;20003;-70
2024/04/13 10:31:27;;;;;;;;;;;23.70;1.00;;;;;;5379097;26;19937;-71
2024/04/13 10:33:53;;;;;;;;;;;24.00;1.00;;;;;;5380069;26;19937;-71
2024/04/13 10:36:25;;;;;;;;;;;24.10;1.00;;;;;;5381890;26;19934;-72
2024/04/13 10:38:54;;;;;;;;;;;24.30;1.00;;;;;;5382683;26;19933;-71
2024/04/13 10:41:30;;;;;;;;;;;24.40;1.00;;;;;;5382067;26;19934;-71
2024/04/13 10:43:58;;;;;;;;;;;24.40;1.00;;;;;;5382658;26;20347;-71
2024/04/13 10:46:24;;;;;;;;;;;24.40;1.00;;;;;;5383154;26;19953;-71
2024/04/13 10:48:51;;;;;;;;;;;24.50;1.00;;;;;;5382446;26;20149;-71
2024/04/13 10:51:17;;;;;;;;;;;24.40;1.00;;;;;;5382635;26;20368;-71
2024/04/13 10:53:43;;;;;;;;;;;24.40;1.00;;;;;;5382669;26;19998;-71
2024/04/13 10:56:09;;;;;;;;;;;24.50;1.00;;;;;;5382500;26;19937;-71
2024/04/13 10:58:35;;;;;;;;;;;24.70;1.00;;;;;;5382676;26;20272;-71
2024/04/13 11:01:01;;;;;;;;;;;24.70;1.00;;;;;;5382504;26;19936;-71
2024/04/13 11:03:30;;;;;;;;;;;24.60;1.00;;;;;;5382180;26;19929;-71
2024/04/13 11:05:56;;;;;;;;;;;24.60;1.00;;;;;;5382885;26;20376;-71
2024/04/13 11:08:23;;;;;;;;;;;24.70;1.00;;;;;;5382672;26;19930;-71
2024/04/13 11:10:52;;;;;;;;;;;24.80;1.00;;;;;;5381851;26;19940;-71
2024/04/13 11:13:18;;;;;;;;;;;25.00;1.00;;;;;;5382682;26;19941;-72
2024/04/13 11:15:44;;;;;;;;;;;25.10;1.00;;;;;;5382911;26;19999;-72
2024/04/13 11:18:09;;;;;;;;;;;25.10;1.00;;;;;;5382187;26;19930;-71
2024/04/13 11:20:35;;;;;;;;;;;25.40;1.00;;;;;;5381644;26;19933;-71
2024/04/13 11:23:01;;;;;;;;;;;25.30;1.00;;;;;;5382450;26;19939;-71
2024/04/13 11:25:27;;;;;;;;;;;25.30;1.00;;;;;;5381765;26;19933;-71
2024/04/13 11:27:53;;;;;;;;;;;25.40;1.00;;;;;;5382699;26;19929;-71
2024/04/13 11:30:18;;;;;;;;;;;25.50;1.00;;;;;;5382173;26;19942;-71
2024/04/13 11:32:44;;;;;;;;;;;25.60;1.00;;;;;;5382062;26;19930;-71
2024/04/13 11:35:13;;;;;;;;;;;25.50;1.00;;;;;;5382623;26;19998;-71
2024/04/13 11:37:38;;;;;;;;;;;25.50;1.00;;;;;;5382529;26;19937;-71
2024/04/13 11:40:08;;;;;;;;;;;25.40;1.00;;;;;;5381440;26;19933;-70
2024/04/13 11:42:33;;;;;;;;;;;25.30;1.00;;;;;;5382897;26;19952;-71
2024/04/13 11:44:59;;;;;;;;;;;25.40;1.00;;;;;;5381840;26;19929;-70
2024/04/13 11:47:26;;;;;;;;;;;25.50;1.00;;;;;;5382592;26;19929;-68
2024/04/13 11:49:52;;;;;;;;;;;25.40;1.00;;;;;;5383016;26;19930;-68
2024/04/13 11:52:18;;;;;;;;;;;25.60;1.00;;;;;;5386598;26;19945;-68
2024/04/13 11:54:43;;;;;;;;;;;25.80;1.00;;;;;;5384486;26;19999;-68
2024/04/13 11:57:12;;;;;;;;;;;26.30;1.00;;;;;;5383377;26;19937;-68
2024/04/13 11:59:37;;;;;;;;;;;27.00;1.00;;;;;;5383011;26;19933;-67
2024/04/13 12:02:03;;;;;;;;;;;26.80;1.00;;;;;;5381851;26;19995;-68
2024/04/13 12:04:28;;;;;;;;;;;27.00;1.00;;;;;;5385766;26;19942;-70
2024/04/13 12:06:54;;;;;;;;;;;26.90;1.00;;;;;;5388979;26;19937;-70
2024/04/13 12:09:20;;;;;;;;;;;27.60;1.00;;;;;;5357531;26;19929;-70
2024/04/13 12:11:45;;;;;;;;;;;27.70;1.00;;;;;;5390661;26;19929;-70
2024/04/13 12:14:11;;;;;;;;;;;27.70;1.00;;;;;;5389388;26;19961;-71
2024/04/13 12:16:37;;;;;;;;;;;27.90;1.00;;;;;;5389142;26;20060;-71
2024/04/13 12:19:03;;;;;;;;;;;27.80;1.00;;;;;;5390894;26;19998;-71
2024/04/13 12:21:30;;;;;;;;;;;27.90;1.00;;;;;;5387887;26;19929;-70
2024/04/13 12:23:56;;;;;;;;;;;27.80;1.00;;;;;;5383256;26;19929;-70
2024/04/13 12:26:21;;;;;;;;;;;27.90;1.00;;;;;;5381601;26;19930;-69
2024/04/13 12:28:47;;;;;;;;;;;27.80;1.00;;;;;;5381270;26;19936;-70
2024/04/13 12:31:12;;;;;;;;;;;28.00;1.00;;;;;;5380813;26;19930;-69
2024/04/13 12:33:38;;;;;;;;;;;28.50;1.00;;;;;;5381286;26;20006;-70
2024/04/13 12:36:05;;;;;;;;;;;29.10;1.00;;;;;;5381414;26;20589;-69
2024/04/13 12:38:30;;;;;;;;;;;29.40;1.00;;;;;;5380136;26;19941;-70
2024/04/13 12:40:56;;;;;;;;;;;29.30;1.00;;;;;;5380671;26;19999;-70
2024/04/13 12:43:21;;;;;;;;;;;29.40;1.00;;;;;;5380813;26;20572;-70
2024/04/13 12:45:47;;;;;;;;;;;30.00;1.00;;;;;;5380293;26;19929;-69
2024/04/13 12:48:12;;;;;;;;;;;30.50;1.00;;;;;;5381233;26;19979;-70
2024/04/13 12:50:38;;;;;;;;;;;30.80;1.00;;;;;;5380927;26;19933;-71
2024/04/13 12:53:03;;;;;;;;;;;31.30;1.00;;;;;;5380939;26;19930;-70
2024/04/13 12:55:30;;;;;;;;;;;31.20;1.00;;;;;;5381764;26;19957;-74
2024/04/13 12:57:57;;;;;;;;;;;31.50;1.00;;;;;;5381109;26;19933;-72
2024/04/13 13:00:22;;;;;;;;;;;32.20;1.00;;;;;;5380796;26;19941;-73
2024/04/13 13:02:48;;;;;;;;;;;32.20;1.00;;;;;;5380837;26;19937;-73
2024/04/13 13:05:13;;;;;;;;;;;32.30;1.00;;;;;;5380950;26;20278;-73
2024/04/13 13:07:39;;;;;;;;;;;32.80;1.00;;;;;;5380801;26;19938;-73
2024/04/13 13:10:06;;;;;;;;;;;33.20;1.00;;;;;;5380304;26;20392;-72
2024/04/13 13:12:32;;;;;;;;;;;33.30;1.00;;;;;;5397269;26;20338;-73
2024/04/13 13:14:57;;;;;;;;;;;33.60;1.00;;;;;;5390214;26;19998;-72
2024/04/13 13:17:23;;;;;;;;;;;33.60;1.00;;;;;;5380517;26;20380;-72
2024/04/13 13:19:50;;;;;;;;;;;33.70;1.00;;;;;;5381477;26;20381;-73
2024/04/13 13:22:15;;;;;;;;;;;33.60;1.00;;;;;;5380220;26;19930;-72
2024/04/13 13:24:41;;;;;;;;;;;33.70;1.00;;;;;;5380165;26;19929;-71
2024/04/13 13:27:08;;;;;;;;;;;33.40;1.00;;;;;;5379486;26;20268;-73
2024/04/13 13:29:34;;;;;;;;;;;33.40;1.00;;;;;;5387075;26;20007;-72
2024/04/13 13:31:59;;;;;;;;;;;33.40;1.00;;;;;;5399534;26;20154;-72
2024/04/13 13:34:24;;;;;;;;;;;33.40;1.00;;;;;;5379975;26;20332;-74
2024/04/13 13:36:50;;;;;;;;;;;33.40;1.00;;;;;;5380068;26;19975;-73
2024/04/13 13:39:16;;;;;;;;;;;33.20;1.00;;;;;;5379020;26;19937;-73
2024/04/13 13:41:42;;;;;;;;;;;33.20;1.00;;;;;;5379832;26;19929;-73
2024/04/13 13:44:09;;;;;;;;;;;33.60;1.00;;;;;;5380066;26;19936;-73
2024/04/13 13:46:35;;;;;;;;;;;33.50;1.00;;;;;;5380041;26;19929;-74
2024/04/13 13:49:01;;;;;;;;;;;33.60;1.00;;;;;;5380566;26;19936;-72
2024/04/13 13:51:26;;;;;;;;;;;33.70;1.00;;;;;;5379821;26;19958;-72
2024/04/13 13:53:52;;;;;;;;;;;33.70;1.00;;;;;;5379806;26;19930;-70
2024/04/13 13:56:17;;;;;;;;;;;33.80;1.00;;;;;;5380304;26;19941;-70
2024/04/13 13:58:43;;;;;;;;;;;34.30;1.00;;;;;;5380016;26;19942;-70
2024/04/13 14:01:08;;;;;;;;;;;34.80;1.00;;;;;;5378934;26;20258;-71
2024/04/13 14:03:34;;;;;;;;;;;35.20;1.00;;;;;;5380295;26;19930;-70
2024/04/13 14:06:04;;;;;;;;;;;35.20;1.00;;;;;;5379537;26;20509;-69
2024/04/13 14:08:32;;;;;;;;;;;35.10;1.00;;;;;;5380171;26;19929;-68
2024/04/13 14:10:57;;;;;;;;;;;35.30;1.00;;;;;;5382996;26;19930;-69
2024/04/13 14:13:23;;;;;;;;;;;35.50;1.00;;;;;;5382294;26;19936;-69